Terminal Aerodrome Forecast
Issued by NWS Cleveland, OH

Home | Current Version | Previous Version | Graphics & Text | Print | Product List | Glossary Off
Versions: 1 2 3 4 5 6 7 8 9 10 11 12 13 14

493
FTUS41 KCLE 161720
TAFTOL
TAF
KTOL 161720Z 1618/1718 28006KT P6SM FEW040
     FM170200 21004KT P6SM SKC
     FM171500 23012KT P6SM SKC=

USA.gov is the U.S. government's official web portal to all federal, state and local government web resources and services.